Time;durP1;ratioP1;P1;durP2;ratioP2;P2;SDS_P1;SDS_P2;PMS_P1;PMS_P2;Temp;Humidity;BMP_temperature;BMP_pressure;BME280_temperature;BME280_humidity;BME280_pressure;Samples;Min_cycle;Max_cycle;Signal;HPM_P1;HPM_P2
2023/02/17 00:00:24;;;;;;;26.52;10.90;;;;;;;12.10;78.05;102001.88;5006037;28;20447;-41
2023/02/17 00:02:54;;;;;;;23.20;10.45;;;;;;;12.15;78.53;101995.03;5009140;28;20037;-41
2023/02/17 00:05:20;;;;;;;28.42;10.52;;;;;;;12.07;78.59;101987.88;5001324;28;20034;-41
2023/02/17 00:07:45;;;;;;;27.58;11.40;;;;;;;12.12;78.25;101992.38;5004240;28;20038;-39
2023/02/17 00:10:10;;;;;;;32.35;11.25;;;;;;;12.27;77.47;101989.22;5004769;28;20042;-41
2023/02/17 00:12:36;;;;;;;30.75;11.68;;;;;;;11.91;78.19;101998.75;5000229;28;20123;-42
2023/02/17 00:15:01;;;;;;;28.48;10.68;;;;;;;12.33;77.56;101998.94;5006939;28;20417;-40
2023/02/17 00:17:26;;;;;;;30.55;11.57;;;;;;;12.28;77.04;102003.19;5003594;28;20444;-40
2023/02/17 00:19:54;;;;;;;31.02;11.13;;;;;;;12.05;78.14;102003.50;5004096;28;20038;-41
2023/02/17 00:22:19;;;;;;;31.48;10.98;;;;;;;12.04;78.34;102004.34;5000114;28;20120;-44
2023/02/17 00:24:44;;;;;;;31.88;11.73;;;;;;;12.24;77.44;101998.75;5003093;28;20121;-40
2023/02/17 00:27:10;;;;;;;30.02;11.27;;;;;;;12.01;78.06;101988.59;5003180;28;20500;-40
2023/02/17 00:29:35;;;;;;;33.22;11.95;;;;;;;12.04;78.11;101993.00;4998983;28;20495;-40
2023/02/17 00:32:01;;;;;;;31.33;12.13;;;;;;;12.00;78.08;101996.41;5003117;28;20049;-38
2023/02/17 00:34:27;;;;;;;33.20;11.77;;;;;;;11.79;78.99;101986.28;4999181;28;20083;-40
2023/02/17 00:36:52;;;;;;;31.20;11.35;;;;;;;12.22;77.54;101987.34;5006255;28;20488;-41
2023/02/17 00:39:17;;;;;;;28.92;11.30;;;;;;;12.09;78.37;101984.44;5003166;28;20038;-40
2023/02/17 00:41:43;;;;;;;32.35;12.48;;;;;;;12.14;77.60;101976.69;5005760;28;20038;-41
2023/02/17 00:44:17;;;;;;;25.63;10.85;;;;;;;12.14;77.53;101971.47;5003538;28;20125;-41
2023/02/17 00:46:43;;;;;;;28.40;11.85;;;;;;;12.00;77.70;101973.78;4999270;28;20037;-43
2023/02/17 00:49:14;;;;;;;31.17;11.82;;;;;;;12.26;77.08;101973.53;5002283;28;20124;-44
2023/02/17 00:51:40;;;;;;;29.38;11.20;;;;;;;12.31;76.77;101972.78;4998622;28;20037;-40
2023/02/17 00:54:05;;;;;;;26.23;10.93;;;;;;;12.02;78.27;101969.44;5002402;28;20056;-40
2023/02/17 00:56:30;;;;;;;27.92;11.27;;;;;;;11.81;78.67;101981.09;4998793;28;20038;-41
2023/02/17 00:58:56;;;;;;;28.00;10.60;;;;;;;11.52;79.15;101977.69;5002287;28;20041;-40
2023/02/17 01:01:21;;;;;;;29.48;10.57;;;;;;;11.78;78.15;101987.09;4997214;28;20078;-41
2023/02/17 01:03:46;;;;;;;29.60;10.60;;;;;;;11.98;77.96;101979.78;5002407;28;20451;-41
2023/02/17 01:06:21;;;;;;;28.40;10.57;;;;;;;12.08;77.87;101984.38;5002575;28;20499;-41
2023/02/17 01:08:46;;;;;;;28.80;10.57;;;;;;;11.76;78.76;101987.09;4998741;28;20034;-41
2023/02/17 01:11:22;;;;;;;33.85;11.25;;;;;;;11.54;78.99;101996.88;5001780;28;20107;-44
2023/02/17 01:13:48;;;;;;;27.77;10.77;;;;;;;11.60;79.42;101991.81;5001312;28;20038;-44
2023/02/17 01:16:26;;;;;;;30.13;10.85;;;;;;;11.51;79.87;101995.06;5002760;28;20045;-40
2023/02/17 01:18:51;;;;;;;32.50;11.23;;;;;;;11.40;80.06;101994.75;5006169;28;20037;-41
2023/02/17 01:21:21;;;;;;;28.30;10.95;;;;;;;11.88;78.81;101986.53;5003100;28;20030;-41
2023/02/17 01:23:51;;;;;;;29.10;11.10;;;;;;;11.65;79.73;101974.53;5009156;28;20034;-42
2023/02/17 01:26:20;;;;;;;29.45;11.43;;;;;;;11.89;78.15;101969.13;5001700;28;20508;-40
2023/02/17 01:28:45;;;;;;;29.67;10.95;;;;;;;12.12;76.90;101962.72;5008439;28;20030;-41
2023/02/17 01:31:12;;;;;;;26.95;11.00;;;;;;;11.87;77.71;101966.47;5008058;28;20454;-41
2023/02/17 01:33:38;;;;;;;26.98;11.07;;;;;;;11.90;77.88;101955.19;5002575;28;20034;-41
2023/02/17 01:36:05;;;;;;;26.00;10.95;;;;;;;12.12;76.98;101961.00;5007411;28;20034;-39
2023/02/17 01:38:31;;;;;;;25.15;10.77;;;;;;;11.75;78.12;101960.91;5004094;28;21201;-43
2023/02/17 01:40:57;;;;;;;25.25;10.40;;;;;;;11.82;78.01;101967.19;5008840;28;20045;-42
2023/02/17 01:43:22;;;;;;;26.73;10.45;;;;;;;12.19;76.58;101939.38;5007122;28;20038;-41
2023/02/17 01:45:52;;;;;;;26.27;10.70;;;;;;;11.94;76.82;101949.22;5010279;28;20120;-42
2023/02/17 01:48:24;;;;;;;24.60;10.65;;;;;;;11.66;77.69;101958.91;5003271;28;20412;-43
2023/02/17 01:50:54;;;;;;;26.38;10.15;;;;;;;12.18;76.66;101950.69;5005515;28;20041;-42
2023/02/17 01:53:26;;;;;;;24.40;9.88;;;;;;;11.97;76.90;101949.25;5001913;28;20034;-42
2023/02/17 01:55:54;;;;;;;23.70;9.73;;;;;;;11.96;76.55;101950.09;5005598;28;20030;-42
2023/02/17 01:58:21;;;;;;;22.33;9.63;;;;;;;11.89;77.02;101949.09;5003475;28;20120;-41
2023/02/17 02:00:48;;;;;;;22.83;9.55;;;;;;;11.73;77.80;101945.19;5010850;28;20034;-41
2023/02/17 02:03:14;;;;;;;21.73;9.13;;;;;;;11.73;77.39;101941.66;5006101;28;20542;-42
2023/02/17 02:05:40;;;;;;;23.13;9.65;;;;;;;11.80;77.33;101933.19;5006287;28;20069;-41
2023/02/17 02:08:07;;;;;;;21.23;9.07;;;;;;;12.06;76.39;101926.88;5008432;28;20117;-44
2023/02/17 02:10:33;;;;;;;23.23;9.35;;;;;;;12.19;75.69;101934.16;5005989;28;20108;-41
2023/02/17 02:12:58;;;;;;;22.25;9.38;;;;;;;12.14;76.46;101930.53;5009548;28;20084;-41
2023/02/17 02:15:28;;;;;;;24.23;9.55;;;;;;;12.00;76.67;101931.94;5004578;28;20042;-41
2023/02/17 02:18:19;;;;;;;23.58;9.52;;;;;;;12.06;76.25;101932.09;5009775;28;20091;-41
2023/02/17 02:21:11;;;;;;;22.48;9.23;;;;;;;11.74;77.11;101931.28;5002176;28;20041;-41
2023/02/17 02:24:01;;;;;;;25.30;9.52;;;;;;;11.87;77.38;101915.94;5001091;28;20708;-41
2023/02/17 02:27:05;;;;;;;22.48;9.13;;;;;;;12.27;75.74;101915.13;5001209;28;20045;-40
2023/02/17 02:29:58;;;;;;;25.02;9.88;;;;;;;12.10;76.03;101904.28;5000771;28;20042;-41
2023/02/17 02:32:44;;;;;;;25.13;9.65;;;;;;;12.03;75.93;101915.44;5001271;28;20037;-42
2023/02/17 02:35:28;;;;;;;24.20;9.50;;;;;;;11.65;77.43;101917.06;5004968;28;20531;-41
2023/02/17 02:38:05;;;;;;;24.50;9.40;;;;;;;11.79;77.39;101919.22;5002040;28;20052;-41
2023/02/17 02:40:35;;;;;;;24.20;9.25;;;;;;;11.39;78.25;101912.06;5001657;28;20044;-42
2023/02/17 02:43:02;;;;;;;27.63;9.55;;;;;;;11.96;76.84;101908.28;5009400;28;20243;-40
2023/02/17 02:45:28;;;;;;;26.00;9.82;;;;;;;11.59;77.50;101911.69;5004663;28;20034;-40
2023/02/17 02:47:55;;;;;;;24.10;9.35;;;;;;;11.66;78.57;101900.56;5004946;28;20033;-42
2023/02/17 02:50:48;;;;;;;28.80;9.73;;;;;;;11.72;78.39;101892.88;5000582;28;20049;-40
2023/02/17 02:53:54;;;;;;;24.27;9.13;;;;;;;12.12;76.98;101894.75;5000958;28;20034;-41
2023/02/17 02:56:29;;;;;;;23.42;8.75;;;;;;;11.89;77.57;101885.50;4997177;28;20100;-42
2023/02/17 02:59:21;;;;;;;27.30;9.95;;;;;;;11.88;77.65;101878.50;5004776;28;20038;-42
2023/02/17 03:01:59;;;;;;;25.13;9.98;;;;;;;12.04;77.29;101878.00;4998909;28;20069;-42
2023/02/17 03:05:07;;;;;;;25.85;10.23;;;;;;;12.17;76.79;101870.50;5002494;28;20043;-40
2023/02/17 03:07:38;;;;;;;24.48;9.52;;;;;;;11.88;77.61;101857.59;4980922;28;20038;-39
2023/02/17 03:10:06;;;;;;;26.00;9.68;;;;;;;12.11;76.89;101848.56;5003782;28;20095;-41
2023/02/17 03:12:32;;;;;;;28.10;10.38;;;;;;;12.08;77.06;101851.97;5000321;28;20044;-41
2023/02/17 03:15:12;;;;;;;26.00;10.18;;;;;;;11.94;77.61;101858.63;5002456;28;20408;-40
2023/02/17 03:17:37;;;;;;;29.80;10.63;;;;;;;12.01;78.01;101852.72;5000461;28;20500;-41
2023/02/17 03:20:04;;;;;;;30.55;10.18;;;;;;;12.22;77.20;101859.25;5004025;28;20069;-40
2023/02/17 03:22:40;;;;;;;28.60;10.50;;;;;;;12.24;77.09;101852.31;5000039;28;20146;-42
2023/02/17 03:25:06;;;;;;;28.23;10.43;;;;;;;12.08;77.07;101853.69;5004094;28;20030;-41
2023/02/17 03:27:32;;;;;;;26.67;10.48;;;;;;;11.99;77.64;101856.13;4999812;28;22233;-41
2023/02/17 03:29:57;;;;;;;24.33;9.95;;;;;;;12.06;77.80;101851.06;5004000;28;20056;-40
2023/02/17 03:32:22;;;;;;;31.30;10.65;;;;;;;12.01;78.10;101855.31;5000287;28;20407;-44
2023/02/17 03:34:48;;;;;;;26.15;10.13;;;;;;;11.77;79.07;101854.75;5004361;28;20449;-40
2023/02/17 03:37:13;;;;;;;28.58;10.32;;;;;;;12.22;77.24;101854.91;5002389;28;20095;-39
2023/02/17 03:39:38;;;;;;;32.38;10.38;;;;;;;12.26;77.53;101875.03;5003494;28;20034;-42
2023/02/17 03:42:04;;;;;;;27.95;9.77;;;;;;;11.85;79.05;101878.41;5004243;28;20037;-43
2023/02/17 03:44:29;;;;;;;28.33;10.25;;;;;;;12.08;77.69;101866.75;5000141;28;20033;-43
2023/02/17 03:46:54;;;;;;;27.88;10.32;;;;;;;12.03;77.70;101881.47;5003411;28;20065;-41
2023/02/17 03:49:20;;;;;;;27.98;9.77;;;;;;;12.41;76.57;101869.25;4999773;28;20144;-41
2023/02/17 03:51:45;;;;;;;27.55;9.95;;;;;;;11.92;78.18;101870.75;5003555;28;20040;-40
2023/02/17 03:54:10;;;;;;;26.45;9.70;;;;;;;12.05;78.18;101879.78;5004429;28;20122;-44
2023/02/17 03:56:36;;;;;;;24.23;9.38;;;;;;;12.43;76.78;101864.97;5002476;28;20128;-43
2023/02/17 03:59:02;;;;;;;30.75;10.27;;;;;;;12.14;78.04;101865.19;5009651;28;20057;-41
2023/02/17 04:01:28;;;;;;;27.30;9.82;;;;;;;12.17;77.99;101859.16;5005663;28;20060;-42
2023/02/17 04:03:53;;;;;;;27.25;10.23;;;;;;;12.16;77.27;101867.84;5008349;28;20570;-44
2023/02/17 04:06:19;;;;;;;27.83;10.57;;;;;;;12.31;77.59;101873.44;5000732;28;20433;-40
2023/02/17 04:08:44;;;;;;;25.65;10.73;;;;;;;12.16;77.50;101878.28;5003370;28;20042;-41
2023/02/17 04:11:12;;;;;;;24.55;9.70;;;;;;;12.19;77.88;101870.53;5003222;28;20029;-48
2023/02/17 04:13:38;;;;;;;23.23;9.98;;;;;;;12.30;78.01;101869.03;4999376;28;20416;-41
2023/02/17 04:16:06;;;;;;;24.42;9.85;;;;;;;12.18;78.30;101866.16;5003686;28;20034;-41
2023/02/17 04:18:32;;;;;;;24.20;9.90;;;;;;;12.14;77.44;101865.19;5000114;28;20041;-42
2023/02/17 04:20:58;;;;;;;29.40;10.48;;;;;;;11.92;79.30;101867.28;5003822;28;20095;-44
2023/02/17 04:23:24;;;;;;;28.85;10.63;;;;;;;12.07;78.68;101878.09;4999934;28;20113;-41
2023/02/17 04:25:49;;;;;;;28.02;10.50;;;;;;;12.11;79.09;101869.47;5002613;28;20436;-43
2023/02/17 04:28:15;;;;;;;28.67;10.57;;;;;;;12.10;79.10;101860.75;4997405;28;20089;-41
2023/02/17 04:30:45;;;;;;;28.73;10.90;;;;;;;12.02;78.36;101853.56;5002727;28;20034;-41
2023/02/17 04:33:11;;;;;;;34.83;11.63;;;;;;;12.08;79.46;101845.84;5002762;28;20088;-41
2023/02/17 04:35:37;;;;;;;35.78;11.40;;;;;;;12.19;78.78;101852.22;4998620;28;20042;-40
2023/02/17 04:38:03;;;;;;;27.63;10.30;;;;;;;12.11;79.40;101848.56;5003053;28;20554;-43
2023/02/17 04:40:30;;;;;;;30.15;10.25;;;;;;;11.92;79.99;101836.78;4998229;28;20038;-45
2023/02/17 04:42:55;;;;;;;31.38;10.13;;;;;;;12.22;78.92;101828.75;5002493;28;20504;-41
2023/02/17 04:45:21;;;;;;;31.75;10.00;;;;;;;12.08;78.77;101838.91;4998662;28;20037;-40
2023/02/17 04:47:46;;;;;;;30.80;9.98;;;;;;;12.28;79.16;101841.97;5005982;28;20053;-41
2023/02/17 04:50:11;;;;;;;31.55;9.93;;;;;;;12.29;78.60;101853.31;5005628;28;20033;-41
2023/02/17 04:52:37;;;;;;;27.65;9.68;;;;;;;12.01;79.73;101860.53;4998360;28;20034;-43
2023/02/17 04:55:03;;;;;;;32.05;10.07;;;;;;;12.25;78.75;101870.66;5002410;28;20077;-40
2023/02/17 04:57:29;;;;;;;31.90;10.57;;;;;;;12.10;80.05;101859.84;4998675;28;20145;-41
2023/02/17 04:59:54;;;;;;;32.20;10.27;;;;;;;12.33;79.80;101858.63;5002179;28;20046;-41
2023/02/17 05:02:20;;;;;;;30.77;10.43;;;;;;;12.43;79.08;101850.16;4998332;28;20034;-42
2023/02/17 05:04:45;;;;;;;35.00;11.25;;;;;;;12.15;79.83;101868.69;5002806;28;20377;-40
2023/02/17 05:07:10;;;;;;;36.00;10.70;;;;;;;12.10;79.82;101857.25;5002480;28;20411;-41
2023/02/17 05:09:36;;;;;;;37.70;12.15;;;;;;;12.12;80.42;101852.94;4999842;28;20510;-40
2023/02/17 05:12:01;;;;;;;35.05;11.30;;;;;;;12.42;78.94;101850.09;5004651;28;20684;-41
2023/02/17 05:14:27;;;;;;;30.98;11.70;;;;;;;12.60;78.93;101859.22;5000779;28;20521;-41
2023/02/17 05:16:53;;;;;;;31.80;11.55;;;;;;;12.45;79.26;101865.84;5002438;28;20065;-41
2023/02/17 05:19:18;;;;;;;39.10;11.32;;;;;;;12.38;79.71;101843.06;4998203;28;20049;-40
2023/02/17 05:21:43;;;;;;;39.47;12.10;;;;;;;12.06;80.47;101838.00;5002760;28;20503;-42
2023/02/17 05:24:09;;;;;;;38.70;11.77;;;;;;;12.26;80.21;101834.97;5002433;28;20551;-43
2023/02/17 05:26:34;;;;;;;34.65;11.95;;;;;;;12.15;80.21;101826.84;4998553;28;20092;-41
2023/02/17 05:28:59;;;;;;;43.13;12.45;;;;;;;12.04;80.78;101821.41;5001725;28;20026;-41
2023/02/17 05:31:24;;;;;;;37.75;12.20;;;;;;;12.29;80.82;101819.31;4998485;28;20042;-44
2023/02/17 05:33:52;;;;;;;33.95;11.57;;;;;;;12.00;81.64;101816.97;5001972;28;20125;-42
2023/02/17 05:36:18;;;;;;;38.53;12.23;;;;;;;12.40;80.31;101804.72;4998206;28;20038;-41
2023/02/17 05:38:47;;;;;;;35.67;11.85;;;;;;;12.29;80.99;101801.91;5002010;28;20034;-44
2023/02/17 05:41:13;;;;;;;33.20;11.57;;;;;;;12.62;80.07;101800.84;4997994;28;20038;-39
2023/02/17 05:43:39;;;;;;;36.40;11.73;;;;;;;12.42;79.90;101806.53;5001942;28;20040;-41
2023/02/17 05:46:04;;;;;;;38.75;12.35;;;;;;;12.54;79.23;101798.94;5001671;28;20384;-41
2023/02/17 05:48:31;;;;;;;36.15;11.93;;;;;;;12.05;81.44;101773.50;4998397;28;20412;-39
2023/02/17 05:50:56;;;;;;;31.98;12.35;;;;;;;11.98;82.28;101797.75;5001881;28;20042;-44
2023/02/17 05:53:21;;;;;;;34.75;12.45;;;;;;;12.52;80.88;101799.75;4998036;28;20038;-41
2023/02/17 05:55:47;;;;;;;32.65;11.50;;;;;;;12.19;81.94;101806.06;5002299;28;20038;-40
2023/02/17 05:58:12;;;;;;;30.10;11.15;;;;;;;12.64;80.15;101793.88;5000900;28;20045;-39
2023/02/17 06:00:37;;;;;;;26.75;10.60;;;;;;;12.56;80.57;101796.38;5011477;28;20046;-39
2023/02/17 06:03:02;;;;;;;29.83;10.85;;;;;;;12.54;80.73;101793.72;5010298;28;20034;-42
2023/02/17 06:05:28;;;;;;;27.73;9.60;;;;;;;12.77;79.92;101795.88;5004107;28;20084;-41
2023/02/17 06:07:53;;;;;;;23.08;9.50;;;;;;;12.55;80.26;101795.47;5006904;28;20093;-40
2023/02/17 06:10:19;;;;;;;25.77;9.60;;;;;;;12.96;78.46;101792.75;5002341;28;20072;-40
2023/02/17 06:12:44;;;;;;;23.75;9.60;;;;;;;12.93;78.89;101785.72;5005878;28;20046;-42
2023/02/17 06:15:09;;;;;;;19.63;9.00;;;;;;;12.87;79.65;101782.97;5005571;28;20038;-39
2023/02/17 06:17:36;;;;;;;21.25;8.93;;;;;;;12.91;79.19;101791.78;5005334;28;20034;-41
2023/02/17 06:20:01;;;;;;;18.88;8.68;;;;;;;12.68;79.04;101791.38;5006990;28;20038;-47
2023/02/17 06:22:26;;;;;;;21.52;8.55;;;;;;;12.81;78.46;101803.81;5002345;28;20407;-41
2023/02/17 06:24:52;;;;;;;20.52;8.32;;;;;;;12.58;79.98;101795.53;5005385;28;20450;-43
2023/02/17 06:27:17;;;;;;;21.38;8.18;;;;;;;12.70;79.47;101786.13;5001959;28;20064;-40
2023/02/17 06:29:43;;;;;;;20.63;8.20;;;;;;;13.05;78.10;101779.84;5004667;28;20121;-42
2023/02/17 06:32:09;;;;;;;22.38;9.15;;;;;;;12.72;78.45;101774.88;5005284;28;20040;-40
2023/02/17 06:34:34;;;;;;;19.58;8.38;;;;;;;12.84;78.13;101780.31;5001473;28;24679;-42
2023/02/17 06:36:59;;;;;;;21.90;8.98;;;;;;;12.79;78.82;101765.41;5004755;28;20056;-41
2023/02/17 06:39:25;;;;;;;18.90;8.55;;;;;;;12.93;78.16;101774.38;5000966;28;20034;-40
2023/02/17 06:41:50;;;;;;;22.77;9.23;;;;;;;12.38;80.02;101770.69;5004515;28;20493;-40
2023/02/17 06:44:15;;;;;;;20.08;9.25;;;;;;;12.83;79.03;101764.59;5004720;28;20103;-41
2023/02/17 06:46:41;;;;;;;18.95;9.07;;;;;;;12.79;78.60;101771.53;5000509;28;20050;-41
2023/02/17 06:49:06;;;;;;;19.45;9.13;;;;;;;12.53;79.80;101771.00;5004638;28;20117;-42
2023/02/17 06:51:31;;;;;;;20.48;8.85;;;;;;;12.55;79.90;101761.47;5002983;28;20046;-40
2023/02/17 06:53:57;;;;;;;18.75;8.32;;;;;;;12.51;79.71;101772.72;5007134;28;20562;-38
2023/02/17 06:56:22;;;;;;;20.48;8.55;;;;;;;12.39;80.27;101784.66;5000582;28;20042;-40
2023/02/17 06:58:48;;;;;;;19.80;8.35;;;;;;;12.40;80.02;101781.19;5004641;28;20242;-40
2023/02/17 07:01:21;;;;;;;18.90;8.30;;;;;;;12.85;78.87;101787.34;5000390;28;20042;-38
2023/02/17 07:03:47;;;;;;;18.45;8.02;;;;;;;12.86;78.12;101762.94;5003844;28;20100;-42
2023/02/17 07:06:12;;;;;;;16.55;7.68;;;;;;;12.65;78.89;101778.22;5000179;28;20038;-38
2023/02/17 07:08:38;;;;;;;19.83;7.53;;;;;;;12.40;79.93;101802.13;5004049;28;20096;-41
2023/02/17 07:11:08;;;;;;;20.85;7.88;;;;;;;12.44;79.71;101822.28;5003194;28;20416;-41
2023/02/17 07:13:33;;;;;;;18.23;7.40;;;;;;;12.63;78.45;101805.19;5000731;28;20064;-41
2023/02/17 07:15:59;;;;;;;17.98;7.28;;;;;;;12.23;79.47;101803.50;5003781;28;20034;-41
2023/02/17 07:18:24;;;;;;;17.25;7.40;;;;;;;12.57;79.61;101812.06;5000092;28;20535;-40
2023/02/17 07:20:50;;;;;;;17.00;6.88;;;;;;;12.82;78.42;101799.47;5003772;28;20030;-41
2023/02/17 07:23:15;;;;;;;16.95;7.47;;;;;;;12.77;78.59;101802.00;5000682;28;20038;-41
2023/02/17 07:25:41;;;;;;;14.65;6.93;;;;;;;12.63;79.08;101798.22;5003772;28;20038;-41
2023/02/17 07:28:06;;;;;;;15.43;7.10;;;;;;;12.29;80.35;101793.16;5003776;28;20488;-42
2023/02/17 07:30:36;;;;;;;16.60;7.25;;;;;;;12.45;79.29;101795.25;4999816;28;20048;-40
2023/02/17 07:33:01;;;;;;;16.75;6.93;;;;;;;12.11;80.54;101796.28;5003938;28;20073;-42
2023/02/17 07:35:27;;;;;;;16.23;6.80;;;;;;;12.34;79.75;101786.28;4999976;28;20065;-41
2023/02/17 07:37:52;;;;;;;16.58;6.65;;;;;;;12.44;79.32;101780.44;5003850;28;20026;-43
2023/02/17 07:40:18;;;;;;;17.15;6.70;;;;;;;12.07;80.95;101794.47;4999811;28;20041;-40
2023/02/17 07:42:43;;;;;;;19.52;6.80;;;;;;;12.02;80.82;101802.16;5003771;28;20066;-42
2023/02/17 07:45:08;;;;;;;16.92;6.30;;;;;;;12.35;80.29;101786.34;5004090;28;20152;-41
2023/02/17 07:47:34;;;;;;;18.20;6.70;;;;;;;12.24;80.03;101794.81;5000001;28;21279;-41
2023/02/17 07:49:59;;;;;;;16.30;6.82;;;;;;;12.10;80.20;101798.00;5003139;28;20038;-41
2023/02/17 07:52:24;;;;;;;17.42;6.32;;;;;;;12.46;79.88;101802.25;4999642;28;20034;-41
2023/02/17 07:54:50;;;;;;;15.55;6.25;;;;;;;12.39;79.28;101809.06;5004995;28;20053;-44
2023/02/17 07:57:15;;;;;;;15.32;6.13;;;;;;;12.34;79.57;101826.41;5001404;28;20038;-40
2023/02/17 07:59:40;;;;;;;13.10;6.35;;;;;;;12.29;80.86;101838.50;5004728;28;20056;-41
2023/02/17 08:02:06;;;;;;;15.77;6.35;;;;;;;12.42;79.58;101837.91;5003852;28;20056;-41
2023/02/17 08:04:31;;;;;;;14.68;6.13;;;;;;;12.33;80.02;101832.47;5000541;28;20047;-43
2023/02/17 08:06:57;;;;;;;13.95;6.18;;;;;;;12.49;78.85;101836.31;5003641;28;20033;-40
2023/02/17 08:14:57;;;;;;;14.98;6.53;;;;;;;12.54;79.29;101826.81;4999781;28;20049;-42
2023/02/17 08:17:22;;;;;;;14.45;6.47;;;;;;;12.58;78.14;101836.50;4998858;28;20038;-44
2023/02/17 08:19:48;;;;;;;14.60;6.00;;;;;;;12.24;79.48;101831.41;5002818;28;20038;-41
2023/02/17 08:22:14;;;;;;;18.50;7.10;;;;;;;12.42;79.99;101829.19;5002035;28;20493;-41
2023/02/17 08:24:39;;;;;;;18.13;6.72;;;;;;;12.35;80.32;101832.53;4998716;28;20038;-40
2023/02/17 08:27:05;;;;;;;18.05;7.43;;;;;;;12.54;79.57;101834.69;5002798;28;20044;-40
2023/02/17 08:29:30;;;;;;;15.85;6.70;;;;;;;12.53;78.70;101836.41;4999196;28;20045;-40
2023/02/17 08:31:55;;;;;;;15.25;6.90;;;;;;;12.68;78.19;101841.09;5001095;28;20026;-43
2023/02/17 08:34:21;;;;;;;18.42;6.55;;;;;;;12.51;78.94;101847.66;4999148;28;20815;-42
2023/02/17 08:36:46;;;;;;;17.02;6.72;;;;;;;12.34;79.71;101857.78;5001214;28;20038;-40
2023/02/17 08:39:16;;;;;;;14.35;6.28;;;;;;;12.42;79.58;101858.84;5004046;28;20042;-43
2023/02/17 08:41:42;;;;;;;15.35;5.97;;;;;;;12.49;78.72;101849.41;5000690;28;20034;-42
2023/02/17 08:44:20;;;;;;;13.38;5.32;;;;;;;12.70;78.54;101846.31;5003885;28;20029;-40
2023/02/17 08:46:47;;;;;;;14.75;5.95;;;;;;;12.53;78.04;101859.06;4998770;28;20045;-40
2023/02/17 08:49:13;;;;;;;16.40;6.07;;;;;;;12.58;77.56;101852.19;5002609;28;20030;-41
2023/02/17 08:51:39;;;;;;;16.65;6.38;;;;;;;12.60;78.38;101855.72;4999691;28;20096;-41
2023/02/17 08:54:06;;;;;;;15.93;6.40;;;;;;;12.46;77.89;101849.31;5006166;28;20030;-42
2023/02/17 08:56:32;;;;;;;18.88;6.57;;;;;;;12.77;76.71;101849.09;5003104;28;20129;-40
2023/02/17 08:58:58;;;;;;;16.02;5.30;;;;;;;12.48;77.99;101845.91;5003535;28;20425;-39
2023/02/17 09:01:24;;;;;;;16.42;6.18;;;;;;;12.83;77.46;101835.25;4999623;28;20062;-41
2023/02/17 09:03:52;;;;;;;14.00;6.03;;;;;;;12.75;76.94;101842.06;5005962;28;20548;-41
2023/02/17 09:06:17;;;;;;;16.77;5.88;;;;;;;12.65;77.78;101843.63;5003298;28;20030;-40
2023/02/17 09:08:43;;;;;;;13.85;6.40;;;;;;;12.55;78.30;101853.03;5005623;28;20048;-43
2023/02/17 09:11:09;;;;;;;12.48;5.22;;;;;;;12.69;78.17;101868.09;5002862;28;20038;-41
2023/02/17 09:13:34;;;;;;;13.93;5.93;;;;;;;12.66;78.28;101868.94;5000149;28;20029;-40
2023/02/17 09:16:00;;;;;;;14.85;5.30;;;;;;;12.90;76.46;101858.97;5007650;28;20038;-41
2023/02/17 09:18:26;;;;;;;14.82;5.70;;;;;;;12.75;77.16;101852.53;5003321;28;20061;-42
2023/02/17 09:20:51;;;;;;;13.07;5.50;;;;;;;12.96;76.50;101877.41;5006029;28;20093;-44
2023/02/17 09:23:17;;;;;;;13.93;5.68;;;;;;;12.97;76.60;101850.38;5002162;28;20042;-40
2023/02/17 09:25:43;;;;;;;13.88;5.78;;;;;;;12.94;76.42;101836.34;5002411;28;20125;-41
2023/02/17 09:28:09;;;;;;;14.57;5.70;;;;;;;12.71;77.72;101830.66;5002710;28;20538;-40
2023/02/17 09:30:35;;;;;;;10.80;5.22;;;;;;;13.00;76.20;101833.81;4998881;28;20045;-42
2023/02/17 09:33:01;;;;;;;12.68;5.03;;;;;;;13.07;76.35;101840.06;5002715;28;20034;-42
2023/02/17 09:35:27;;;;;;;10.45;5.20;;;;;;;13.11;76.10;101849.75;5001708;28;20026;-41
2023/02/17 09:37:53;;;;;;;11.10;5.32;;;;;;;13.24;75.68;101852.63;5005702;28;20061;-41
2023/02/17 09:40:29;;;;;;;12.35;5.15;;;;;;;13.24;75.94;101849.13;5003839;28;20103;-41
2023/02/17 09:42:54;;;;;;;12.13;5.30;;;;;;;13.10;76.48;101882.03;5011467;28;20037;-41
2023/02/17 09:45:32;;;;;;;13.95;5.10;;;;;;;13.42;75.48;101867.78;5007889;28;20037;-43
2023/02/17 09:48:06;;;;;;;12.15;4.80;;;;;;;12.95;76.16;101865.16;5011224;28;20589;-42
2023/02/17 09:50:39;;;;;;;11.35;5.40;;;;;;;12.97;77.22;101873.06;5004973;28;20080;-41
2023/02/17 09:53:23;;;;;;;11.52;4.97;;;;;;;13.25;75.95;101867.50;5010085;28;20268;-40
2023/02/17 09:55:52;;;;;;;12.93;5.18;;;;;;;13.11;76.56;101897.78;5007085;28;20140;-41
2023/02/17 09:58:31;;;;;;;13.75;5.20;;;;;;;13.28;75.88;101890.25;5005929;28;20404;-45
2023/02/17 10:01:01;;;;;;;11.88;4.60;;;;;;;13.04;76.89;101906.34;5010320;28;20053;-40
2023/02/17 10:03:43;;;;;;;12.18;5.45;;;;;;;12.82;77.45;101901.50;5006281;28;20030;-40
2023/02/17 10:06:19;;;;;;;12.10;4.90;;;;;;;12.89;77.33;101919.13;5005811;28;20038;-42
2023/02/17 10:08:54;;;;;;;11.60;5.28;;;;;;;12.69;76.96;101925.66;5002122;28;20512;-41
2023/02/17 10:13:50;;;;;;;11.00;5.00;;;;;;;12.94;76.55;101894.81;4981775;28;20050;-43
2023/02/17 10:16:22;;;;;;;16.25;5.40;;;;;;;13.05;76.32;101895.03;4983387;28;20064;-44
2023/02/17 10:18:55;;;;;;;13.52;5.30;;;;;;;12.72;77.02;101910.94;4970845;28;20523;-48
2023/02/17 10:21:28;;;;;;;15.18;5.20;;;;;;;13.12;75.90;101899.53;4983287;28;20097;-43
2023/02/17 10:23:54;;;;;;;12.13;4.88;;;;;;;12.84;77.17;101908.56;4988970;28;20519;-45
2023/02/17 10:26:44;;;;;;;14.98;5.30;;;;;;;13.39;75.41;101904.44;4987131;28;20129;-44
2023/02/17 10:29:27;;;;;;;14.02;5.15;;;;;;;13.06;75.27;101920.34;4990728;28;20034;-43
2023/02/17 10:32:23;;;;;;;12.95;4.95;;;;;;;13.15;75.67;101919.69;4989440;28;20140;-43
2023/02/17 10:35:07;;;;;;;13.35;4.97;;;;;;;13.05;75.74;101918.59;4988997;28;20041;-42
2023/02/17 10:37:46;;;;;;;12.80;4.57;;;;;;;13.21;75.89;101925.91;4988100;28;20042;-47
2023/02/17 10:40:21;;;;;;;13.45;4.90;;;;;;;13.14;75.67;101936.22;4990003;28;20516;-45
2023/02/17 10:42:51;;;;;;;13.27;4.60;;;;;;;13.23;75.77;101905.00;4965805;28;20049;-45
2023/02/17 10:45:34;;;;;;;14.98;4.93;;;;;;;12.99;75.75;101944.66;4982472;28;20026;-43
2023/02/17 10:48:06;;;;;;;15.82;5.28;;;;;;;13.23;74.71;101942.56;4986452;28;20505;-43
2023/02/17 10:50:31;;;;;;;16.35;5.43;;;;;;;13.08;75.29;101952.69;4982618;28;20076;-44
2023/02/17 10:52:58;;;;;;;14.27;5.03;;;;;;;13.34;75.07;101930.53;4968864;28;20054;-44
2023/02/17 10:55:49;;;;;;;14.48;4.68;;;;;;;13.31;74.78;101972.38;4982957;28;20147;-46
2023/02/17 10:58:21;;;;;;;15.70;5.20;;;;;;;13.31;74.85;101929.59;4985355;28;20407;-44
2023/02/17 11:00:51;;;;;;;12.93;5.57;;;;;;;12.77;77.24;101951.16;4991546;28;20027;-45
2023/02/17 11:03:21;;;;;;;17.10;5.70;;;;;;;13.19;76.03;101932.84;4987028;28;20042;-45
2023/02/17 11:05:55;;;;;;;20.58;6.60;;;;;;;12.83;76.76;101925.09;4992413;28;20098;-48
2023/02/17 11:08:26;;;;;;;;;;;;;;;13.06;75.80;101922.94;4992956;28;20088;-45
2023/02/17 11:11:12;;;;;;;17.85;5.75;;;;;;;12.97;76.00;101928.03;4984468;28;19918;-44
2023/02/17 11:13:50;;;;;;;24.73;6.72;;;;;;;13.02;76.21;101934.22;4965875;28;20094;-48
2023/02/17 11:16:27;;;;;;;19.83;7.00;;;;;;;12.68;76.77;101935.28;4982924;28;20050;-44
2023/02/17 11:18:54;;;;;;;23.83;6.65;;;;;;;12.99;75.66;101950.72;4986087;28;20512;-46
2023/02/17 11:21:20;;;;;;;20.25;6.85;;;;;;;12.75;76.06;101937.13;4982081;28;20058;-48
2023/02/17 11:23:58;;;;;;;22.10;6.80;;;;;;;12.42;77.90;101955.59;4985711;28;20120;-45
2023/02/17 11:26:26;;;;;;;21.70;8.35;;;;;;;12.38;77.73;101985.13;4981942;28;20133;-46
2023/02/17 11:28:52;;;;;;;22.90;8.02;;;;;;;12.75;76.75;101968.53;4985686;28;20079;-45